PAC8575 VIDP-LOWW
Flight info
| Callsign | PAC8575 |
|---|---|
| Flight time | N/A |
| Altitude | 30000 |
| Route | N0510F300 DUDU7G DUDUM Q2 BBB P751 BISET/N0511F320 P751 LADIB P570 GOLNI N569 TOKRA DCT ALROK/N0517F300 DCT BOSOB DCT ITRUX Y511 PMA Z712 WEJ L677 RAGPU/N0500F340 L677 CVO L617 NOZ L551 ANTAR UN133 PEREN UL863 EVIVI L863 OKANA DCT PARAK DCT BALUX DCT TORNO DCT NATEX NATEX2W |
| Aircraft | B748/H-SADE1E2E3FGHIJ1J2J3J4J5J7M1M3P2RWXYZ/LB1D1G1 |
Departure
| Time | 2026-05-04 02:48 |
|---|---|
| Airport | Indira Gandhi International Airport (VIDP) |
Arrival
| Time | N/A |
|---|---|
| Airport | Vienna International Airport (LOWW) |
| Time | Latitude | Longitude | Altitude | Speed | Heading |
|---|---|---|---|---|---|
| 2026-05-04 01:00 | 28.56375 | 77.08306 | 790 ft | 0 kts | 15° |
| 2026-05-04 02:38 | 28.56374 | 77.08306 | 790 ft | 2 kts | 15° |
| 2026-05-04 02:38 | 28.56350 | 77.08297 | 790 ft | 4 kts | 21° |
| 2026-05-04 02:38 | 28.56329 | 77.08289 | 790 ft | 4 kts | 354° |
| 2026-05-04 02:38 | 28.56310 | 77.08294 | 790 ft | 4 kts | 327° |
| 2026-05-04 02:39 | 28.56297 | 77.08309 | 790 ft | 4 kts | 289° |
| 2026-05-04 02:39 | 28.56290 | 77.08338 | 790 ft | 3 kts | 284° |
| 2026-05-04 02:39 | 28.56289 | 77.08342 | 790 ft | 0 kts | 285° |
| 2026-05-04 02:43 | 28.56290 | 77.08337 | 790 ft | 6 kts | 285° |
| 2026-05-04 02:44 | 28.56303 | 77.08280 | 790 ft | 8 kts | 285° |
| 2026-05-04 02:44 | 28.56320 | 77.08210 | 790 ft | 9 kts | 285° |
| 2026-05-04 02:44 | 28.56340 | 77.08124 | 790 ft | 14 kts | 285° |
| 2026-05-04 02:44 | 28.56364 | 77.08022 | 790 ft | 13 kts | 293° |
| 2026-05-04 02:45 | 28.56442 | 77.08013 | 790 ft | 13 kts | 31° |
| 2026-05-04 02:45 | 28.56495 | 77.08095 | 790 ft | 13 kts | 61° |
| 2026-05-04 02:45 | 28.56541 | 77.08192 | 790 ft | 17 kts | 61° |
| 2026-05-04 02:45 | 28.56595 | 77.08305 | 790 ft | 16 kts | 61° |
| 2026-05-04 02:46 | 28.56646 | 77.08411 | 790 ft | 15 kts | 61° |
| 2026-05-04 02:46 | 28.56693 | 77.08509 | 790 ft | 14 kts | 62° |
| 2026-05-04 02:46 | 28.56707 | 77.08553 | 790 ft | 3 kts | 101° |
| 2026-05-04 02:46 | 28.56703 | 77.08573 | 790 ft | 3 kts | 104° |
| 2026-05-04 02:47 | 28.56669 | 77.08722 | 790 ft | 45 kts | 104° |
| 2026-05-04 02:47 | 28.56555 | 77.09274 | 790 ft | 94 kts | 109° |
| 2026-05-04 02:47 | 28.56331 | 77.10192 | 791 ft | 146 kts | 107° |
| 2026-05-04 02:47 | 28.56030 | 77.11474 | 826 ft | 183 kts | 104° |
| 2026-05-04 02:48 | 28.55700 | 77.12885 | 1257 ft | 185 kts | 104° |
| 2026-05-04 02:48 | 28.55379 | 77.14287 | 1924 ft | 180 kts | 104° |
| 2026-05-04 02:48 | 28.55068 | 77.15646 | 2513 ft | 175 kts | 103° |
| 2026-05-04 02:48 | 28.54765 | 77.16962 | 2816 ft | 172 kts | 104° |
| 2026-05-04 02:49 | 28.54467 | 77.18274 | 3032 ft | 172 kts | 104° |
| 2026-05-04 02:49 | 28.54159 | 77.19597 | 3199 ft | 173 kts | 104° |
| 2026-05-04 02:49 | 28.53852 | 77.20925 | 3388 ft | 174 kts | 105° |
| 2026-05-04 02:49 | 28.53541 | 77.22266 | 3583 ft | 176 kts | 105° |
| 2026-05-04 02:50 | 28.53236 | 77.23606 | 3807 ft | 176 kts | 105° |
| 2026-05-04 02:50 | 28.52923 | 77.24950 | 3937 ft | 180 kts | 105° |
| 2026-05-04 02:50 | 28.52597 | 77.26355 | 4058 ft | 186 kts | 105° |
| 2026-05-04 02:50 | 28.52260 | 77.27793 | 4247 ft | 190 kts | 106° |
| 2026-05-04 02:51 | 28.51915 | 77.29278 | 4356 ft | 197 kts | 106° |
| 2026-05-04 02:51 | 28.51566 | 77.30790 | 4583 ft | 198 kts | 106° |
| 2026-05-04 02:51 | 28.51129 | 77.32286 | 4771 ft | 201 kts | 121° |
| 2026-05-04 02:51 | 28.50099 | 77.33340 | 4872 ft | 204 kts | 154° |
| 2026-05-04 02:52 | 28.48698 | 77.33566 | 5093 ft | 206 kts | 177° |
| 2026-05-04 02:52 | 28.47290 | 77.33307 | 5369 ft | 206 kts | 187° |
| 2026-05-04 02:52 | 28.45892 | 77.32862 | 5553 ft | 210 kts | 192° |
| 2026-05-04 02:52 | 28.44506 | 77.32340 | 5772 ft | 210 kts | 195° |
| 2026-05-04 02:53 | 28.43118 | 77.31795 | 6020 ft | 212 kts | 196° |
| 2026-05-04 02:53 | 28.41719 | 77.31249 | 6214 ft | 214 kts | 195° |
| 2026-05-04 02:53 | 28.40288 | 77.30739 | 6325 ft | 219 kts | 194° |
| 2026-05-04 02:53 | 28.38802 | 77.30238 | 6435 ft | 224 kts | 194° |
| 2026-05-04 02:54 | 28.37300 | 77.29727 | 6687 ft | 226 kts | 195° |
| 2026-05-04 02:54 | 28.35778 | 77.29213 | 6874 ft | 231 kts | 194° |
| 2026-05-04 02:54 | 28.34287 | 77.28538 | 6983 ft | 239 kts | 209° |
| 2026-05-04 02:54 | 28.32999 | 77.27327 | 7102 ft | 242 kts | 221° |
| 2026-05-04 02:55 | 28.30874 | 77.24403 | 7512 ft | 239 kts | 230° |
| 2026-05-04 02:55 | 28.29884 | 77.22883 | 7701 ft | 240 kts | 229° |
| 2026-05-04 02:55 | 28.28857 | 77.21371 | 7835 ft | 246 kts | 229° |
| 2026-05-04 02:56 | 28.27778 | 77.19815 | 7937 ft | 254 kts | 229° |
| 2026-05-04 02:56 | 28.26656 | 77.18214 | 8011 ft | 265 kts | 229° |
| 2026-05-04 02:56 | 28.25498 | 77.16558 | 8209 ft | 270 kts | 229° |
| 2026-05-04 02:56 | 28.24313 | 77.14860 | 8436 ft | 278 kts | 229° |
| 2026-05-04 02:57 | 28.23095 | 77.13135 | 8784 ft | 279 kts | 229° |
| 2026-05-04 02:57 | 28.21898 | 77.11436 | 9358 ft | 274 kts | 229° |
| 2026-05-04 02:57 | 28.20709 | 77.09749 | 9742 ft | 273 kts | 230° |
| 2026-05-04 02:57 | 28.19520 | 77.08040 | 9938 ft | 280 kts | 230° |
| 2026-05-04 02:58 | 28.18292 | 77.06286 | 10059 ft | 287 kts | 231° |
| 2026-05-04 02:58 | 28.17032 | 77.04486 | 10203 ft | 298 kts | 231° |
| 2026-05-04 02:58 | 28.15705 | 77.02601 | 10321 ft | 313 kts | 231° |
| 2026-05-04 02:58 | 28.14323 | 77.00637 | 10441 ft | 329 kts | 231° |
| 2026-05-04 02:59 | 28.12859 | 76.98561 | 10568 ft | 345 kts | 231° |
| 2026-05-04 02:59 | 28.11323 | 76.96391 | 10695 ft | 360 kts | 231° |
| 2026-05-04 02:59 | 28.09725 | 76.94129 | 10836 ft | 376 kts | 232° |
| 2026-05-04 02:59 | 28.08062 | 76.91771 | 11032 ft | 389 kts | 232° |
| 2026-05-04 03:00 | 28.06355 | 76.89354 | 11420 ft | 397 kts | 232° |
| 2026-05-04 03:00 | 28.04631 | 76.86921 | 12157 ft | 394 kts | 232° |
| 2026-05-04 03:00 | 28.02911 | 76.84490 | 12735 ft | 397 kts | 232° |
| 2026-05-04 03:00 | 28.01174 | 76.82035 | 13210 ft | 403 kts | 232° |
| 2026-05-04 03:01 | 27.99410 | 76.79538 | 13727 ft | 405 kts | 232° |
| 2026-05-04 03:01 | 27.97646 | 76.77030 | 14197 ft | 410 kts | 232° |
| 2026-05-04 03:01 | 27.95863 | 76.74504 | 14783 ft | 411 kts | 232° |
| 2026-05-04 03:01 | 27.94067 | 76.71974 | 15314 ft | 414 kts | 232° |
| 2026-05-04 03:02 | 27.92277 | 76.69455 | 15780 ft | 418 kts | 231° |
| 2026-05-04 03:02 | 27.90468 | 76.66911 | 16133 ft | 424 kts | 231° |
| 2026-05-04 03:02 | 27.88616 | 76.64306 | 16696 ft | 425 kts | 231° |
| 2026-05-04 03:02 | 27.86749 | 76.61686 | 17088 ft | 430 kts | 231° |
| 2026-05-04 03:03 | 27.84871 | 76.59047 | 17644 ft | 430 kts | 231° |
| 2026-05-04 03:03 | 27.82980 | 76.56396 | 18061 ft | 434 kts | 231° |
| 2026-05-04 03:03 | 27.81092 | 76.53805 | 18568 ft | 436 kts | 227° |
| 2026-05-04 03:03 | 27.78840 | 76.51456 | 18964 ft | 439 kts | 220° |
| 2026-05-04 03:04 | 27.76412 | 76.49364 | 19490 ft | 441 kts | 216° |
| 2026-05-04 03:04 | 27.73867 | 76.47423 | 20022 ft | 441 kts | 214° |
| 2026-05-04 03:04 | 27.71274 | 76.45545 | 20372 ft | 446 kts | 213° |
| 2026-05-04 03:04 | 27.68658 | 76.43645 | 20948 ft | 444 kts | 214° |
| 2026-05-04 03:05 | 27.66072 | 76.41719 | 21384 ft | 447 kts | 214° |
| 2026-05-04 03:05 | 27.63467 | 76.39767 | 21784 ft | 450 kts | 214° |
| 2026-05-04 03:05 | 27.60854 | 76.37810 | 22156 ft | 453 kts | 214° |
| 2026-05-04 03:05 | 27.58223 | 76.35831 | 22619 ft | 454 kts | 214° |
| 2026-05-04 03:06 | 27.56480 | 76.34522 | 22904 ft | 455 kts | 214° |
| 2026-05-04 03:06 | 27.52943 | 76.31869 | 23419 ft | 459 kts | 214° |
| 2026-05-04 03:06 | 27.51177 | 76.30552 | 23697 ft | 460 kts | 213° |
| 2026-05-04 03:06 | 27.48450 | 76.28643 | 24107 ft | 462 kts | 212° |
| 2026-05-04 03:07 | 27.44780 | 76.26175 | 24594 ft | 465 kts | 212° |
| 2026-05-04 03:07 | 27.42896 | 76.24902 | 24683 ft | 470 kts | 212° |
| 2026-05-04 03:07 | 27.40085 | 76.22996 | 25097 ft | 471 kts | 212° |
| 2026-05-04 03:07 | 27.37282 | 76.21087 | 25536 ft | 471 kts | 212° |
| 2026-05-04 03:08 | 27.34479 | 76.19175 | 25965 ft | 471 kts | 213° |
| 2026-05-04 03:08 | 27.31665 | 76.17254 | 26237 ft | 474 kts | 213° |
| 2026-05-04 03:08 | 27.28834 | 76.15322 | 26538 ft | 476 kts | 213° |
| 2026-05-04 03:08 | 27.25997 | 76.13385 | 26793 ft | 479 kts | 213° |
| 2026-05-04 03:09 | 27.23145 | 76.11438 | 27107 ft | 480 kts | 213° |
| 2026-05-04 03:09 | 27.20288 | 76.09475 | 27408 ft | 482 kts | 213° |
| 2026-05-04 03:09 | 27.17427 | 76.07514 | 27678 ft | 483 kts | 213° |
| 2026-05-04 03:09 | 27.14542 | 76.05542 | 27899 ft | 485 kts | 213° |
| 2026-05-04 03:10 | 27.11657 | 76.03574 | 28170 ft | 486 kts | 213° |
| 2026-05-04 03:10 | 27.08758 | 76.01589 | 28424 ft | 487 kts | 214° |
| 2026-05-04 03:10 | 27.05897 | 75.99633 | 28623 ft | 490 kts | 214° |
| 2026-05-04 03:11 | 27.00021 | 75.95635 | 28894 ft | 495 kts | 214° |
| 2026-05-04 03:11 | 26.97069 | 75.93631 | 29142 ft | 495 kts | 214° |
| 2026-05-04 03:11 | 26.94128 | 75.91636 | 29422 ft | 495 kts | 214° |
| 2026-05-04 03:11 | 26.91182 | 75.89638 | 29694 ft | 494 kts | 214° |
| 2026-05-04 03:12 | 26.88239 | 75.87645 | 29798 ft | 494 kts | 214° |
| 2026-05-04 03:12 | 26.82259 | 75.83780 | 29840 ft | 498 kts | 210° |
| 2026-05-04 03:13 | 26.75808 | 75.80786 | 29829 ft | 504 kts | 205° |
| 2026-05-04 03:13 | 26.69199 | 75.78084 | 29816 ft | 505 kts | 205° |
| 2026-05-04 03:14 | 26.62651 | 75.75351 | 29805 ft | 505 kts | 205° |
| 2026-05-04 03:14 | 26.56068 | 75.72582 | 29808 ft | 505 kts | 205° |
| 2026-05-04 03:15 | 26.49486 | 75.69803 | 29787 ft | 505 kts | 205° |
| 2026-05-04 03:15 | 26.42917 | 75.67019 | 29793 ft | 506 kts | 205° |
| 2026-05-04 03:16 | 26.36335 | 75.64241 | 29825 ft | 506 kts | 205° |
| 2026-05-04 03:16 | 26.29793 | 75.61484 | 29839 ft | 505 kts | 205° |
| 2026-05-04 03:17 | 26.23211 | 75.58714 | 29818 ft | 506 kts | 205° |
| 2026-05-04 03:17 | 26.16623 | 75.55940 | 29821 ft | 506 kts | 205° |
| 2026-05-04 03:18 | 26.10036 | 75.53172 | 29819 ft | 506 kts | 205° |
| 2026-05-04 03:18 | 26.03439 | 75.50409 | 29821 ft | 506 kts | 205° |
| 2026-05-04 03:19 | 25.96844 | 75.47652 | 29821 ft | 506 kts | 205° |
| 2026-05-04 03:19 | 25.90243 | 75.44892 | 29831 ft | 507 kts | 205° |
| 2026-05-04 03:20 | 25.83639 | 75.42155 | 29823 ft | 507 kts | 205° |
| 2026-05-04 03:20 | 25.77017 | 75.39436 | 29829 ft | 507 kts | 205° |
| 2026-05-04 03:21 | 25.70407 | 75.36721 | 29832 ft | 507 kts | 205° |
| 2026-05-04 03:21 | 25.63835 | 75.34026 | 29832 ft | 507 kts | 205° |
| 2026-05-04 03:22 | 25.57221 | 75.31315 | 29837 ft | 507 kts | 205° |
| 2026-05-04 03:22 | 25.50608 | 75.28593 | 29837 ft | 507 kts | 205° |
| 2026-05-04 03:23 | 25.43990 | 75.25877 | 29833 ft | 507 kts | 205° |
| 2026-05-04 03:23 | 25.37367 | 75.23167 | 29838 ft | 507 kts | 205° |
| 2026-05-04 03:24 | 25.30746 | 75.20462 | 29839 ft | 507 kts | 205° |
| 2026-05-04 03:24 | 25.24118 | 75.17756 | 29840 ft | 507 kts | 205° |
| 2026-05-04 03:25 | 25.17496 | 75.15056 | 29841 ft | 507 kts | 205° |
| 2026-05-04 03:25 | 25.10863 | 75.12355 | 29841 ft | 508 kts | 205° |
| 2026-05-04 03:26 | 25.04231 | 75.09659 | 29844 ft | 507 kts | 205° |
| 2026-05-04 03:26 | 24.97606 | 75.06968 | 29845 ft | 507 kts | 205° |
| 2026-05-04 03:27 | 24.90978 | 75.04279 | 29846 ft | 507 kts | 205° |
| 2026-05-04 03:27 | 24.84350 | 75.01585 | 29847 ft | 508 kts | 205° |
| 2026-05-04 03:28 | 24.77719 | 74.98898 | 29843 ft | 508 kts | 205° |
| 2026-05-04 03:28 | 24.71083 | 74.96217 | 29844 ft | 508 kts | 205° |
| 2026-05-04 03:29 | 24.64485 | 74.93557 | 29850 ft | 508 kts | 205° |
| 2026-05-04 03:29 | 24.57843 | 74.90877 | 29842 ft | 508 kts | 205° |
| 2026-05-04 03:30 | 24.51184 | 74.88200 | 29844 ft | 509 kts | 205° |
| 2026-05-04 03:30 | 24.44533 | 74.85526 | 29844 ft | 509 kts | 205° |
| 2026-05-04 03:31 | 24.37875 | 74.82855 | 29842 ft | 509 kts | 205° |
| 2026-05-04 03:31 | 24.31213 | 74.80178 | 29845 ft | 509 kts | 205° |
| 2026-05-04 03:32 | 24.24556 | 74.77498 | 29844 ft | 510 kts | 205° |
| 2026-05-04 03:32 | 24.17928 | 74.74843 | 29839 ft | 510 kts | 204° |
| 2026-05-04 03:33 | 24.11258 | 74.72180 | 29850 ft | 510 kts | 205° |
| 2026-05-04 03:33 | 24.04537 | 74.69497 | 29848 ft | 511 kts | 205° |
| 2026-05-04 03:34 | 23.97901 | 74.66842 | 29850 ft | 511 kts | 205° |
| 2026-05-04 03:34 | 23.91205 | 74.64161 | 29850 ft | 513 kts | 204° |
| 2026-05-04 03:35 | 23.84498 | 74.61481 | 29850 ft | 513 kts | 204° |
| 2026-05-04 03:35 | 23.77793 | 74.58804 | 29850 ft | 513 kts | 204° |
| 2026-05-04 03:36 | 23.71081 | 74.56126 | 29849 ft | 513 kts | 204° |
| 2026-05-04 03:36 | 23.64375 | 74.53441 | 29850 ft | 513 kts | 204° |
| 2026-05-04 03:37 | 23.57673 | 74.50765 | 29850 ft | 513 kts | 204° |
| 2026-05-04 03:37 | 23.50964 | 74.48093 | 29850 ft | 513 kts | 204° |
| 2026-05-04 03:38 | 23.44310 | 74.45443 | 29849 ft | 513 kts | 204° |
| 2026-05-04 03:38 | 23.37595 | 74.42770 | 29848 ft | 513 kts | 204° |
| 2026-05-04 03:39 | 23.30879 | 74.40109 | 29848 ft | 513 kts | 204° |
| 2026-05-04 03:39 | 23.24171 | 74.37452 | 29849 ft | 513 kts | 204° |
| 2026-05-04 03:40 | 23.17456 | 74.34793 | 29848 ft | 513 kts | 204° |
| 2026-05-04 03:40 | 23.10738 | 74.32137 | 29845 ft | 513 kts | 204° |
| 2026-05-04 03:41 | 23.04017 | 74.29485 | 29844 ft | 514 kts | 204° |
| 2026-05-04 03:41 | 22.97340 | 74.26854 | 29838 ft | 514 kts | 204° |
| 2026-05-04 03:42 | 22.90619 | 74.24197 | 29818 ft | 514 kts | 204° |
| 2026-05-04 03:42 | 22.83884 | 74.21538 | 29822 ft | 514 kts | 204° |
| 2026-05-04 03:43 | 22.77146 | 74.18890 | 29818 ft | 515 kts | 204° |
| 2026-05-04 03:43 | 22.70417 | 74.16246 | 29814 ft | 515 kts | 204° |
| 2026-05-04 03:44 | 22.63682 | 74.13604 | 29811 ft | 516 kts | 204° |
| 2026-05-04 03:44 | 22.56914 | 74.10960 | 29809 ft | 518 kts | 204° |
| 2026-05-04 03:45 | 22.50128 | 74.08313 | 29807 ft | 517 kts | 204° |
| 2026-05-04 03:45 | 22.43366 | 74.05677 | 29804 ft | 516 kts | 204° |
| 2026-05-04 03:46 | 22.36644 | 74.03060 | 29803 ft | 517 kts | 204° |
| 2026-05-04 03:46 | 22.29875 | 74.00424 | 29805 ft | 517 kts | 204° |
| 2026-05-04 03:47 | 22.23086 | 73.97775 | 29801 ft | 520 kts | 204° |
| 2026-05-04 03:47 | 22.16290 | 73.95129 | 29803 ft | 519 kts | 204° |
| 2026-05-04 03:48 | 22.10485 | 73.92874 | 29802 ft | 519 kts | 204° |
| 2026-05-04 03:48 | 22.03694 | 73.90241 | 29810 ft | 519 kts | 204° |
| 2026-05-04 03:49 | 21.96887 | 73.87598 | 29817 ft | 518 kts | 204° |
| 2026-05-04 03:49 | 21.90095 | 73.84969 | 29818 ft | 519 kts | 204° |
| 2026-05-04 03:50 | 21.83306 | 73.82342 | 29819 ft | 519 kts | 204° |
| 2026-05-04 03:50 | 21.77662 | 73.80161 | 29821 ft | 519 kts | 204° |
| 2026-05-04 03:51 | 21.70863 | 73.77535 | 29823 ft | 519 kts | 204° |
| 2026-05-04 03:51 | 21.64049 | 73.74907 | 29825 ft | 520 kts | 204° |
| 2026-05-04 03:52 | 21.56130 | 73.71855 | 29831 ft | 521 kts | 204° |
| 2026-05-04 03:52 | 21.50413 | 73.69655 | 29828 ft | 521 kts | 204° |
| 2026-05-04 03:53 | 21.43581 | 73.67024 | 29834 ft | 522 kts | 204° |
| 2026-05-04 03:53 | 21.36741 | 73.64392 | 29837 ft | 522 kts | 204° |
| 2026-05-04 03:54 | 21.29934 | 73.61781 | 29839 ft | 523 kts | 204° |
| 2026-05-04 03:54 | 21.23079 | 73.59155 | 29840 ft | 523 kts | 203° |
| 2026-05-04 03:55 | 21.16213 | 73.56527 | 29843 ft | 524 kts | 203° |
| 2026-05-04 03:55 | 21.09298 | 73.54021 | 29854 ft | 525 kts | 201° |
| 2026-05-04 03:56 | 21.02301 | 73.51734 | 29857 ft | 527 kts | 201° |
| 2026-05-04 03:56 | 20.95293 | 73.49404 | 29857 ft | 527 kts | 201° |
| 2026-05-04 03:57 | 20.88296 | 73.47063 | 29857 ft | 527 kts | 201° |
| 2026-05-04 03:57 | 20.81296 | 73.44718 | 29862 ft | 528 kts | 201° |
| 2026-05-04 03:58 | 20.70787 | 73.41187 | 29864 ft | 528 kts | 201° |
| 2026-05-04 03:58 | 20.63777 | 73.38840 | 29870 ft | 528 kts | 201° |
| 2026-05-04 03:59 | 20.56754 | 73.36490 | 29874 ft | 529 kts | 201° |
| 2026-05-04 03:59 | 20.49734 | 73.34139 | 29881 ft | 529 kts | 201° |
| 2026-05-04 04:00 | 20.42709 | 73.31796 | 29882 ft | 529 kts | 201° |
| 2026-05-04 04:00 | 20.35689 | 73.29457 | 29884 ft | 529 kts | 201° |
| 2026-05-04 04:01 | 20.28715 | 73.27135 | 29886 ft | 529 kts | 201° |
| 2026-05-04 04:01 | 20.21685 | 73.24795 | 29887 ft | 530 kts | 201° |
| 2026-05-04 04:02 | 20.14645 | 73.22455 | 29888 ft | 530 kts | 201° |
| 2026-05-04 04:02 | 20.07609 | 73.20118 | 29889 ft | 529 kts | 201° |
| 2026-05-04 04:03 | 20.00573 | 73.17783 | 29886 ft | 530 kts | 201° |
| 2026-05-04 04:03 | 19.93529 | 73.15446 | 29885 ft | 531 kts | 200° |
| 2026-05-04 04:04 | 19.86479 | 73.13103 | 29881 ft | 531 kts | 201° |
| 2026-05-04 04:04 | 19.79407 | 73.10756 | 29875 ft | 531 kts | 200° |
| 2026-05-04 04:05 | 19.72396 | 73.08434 | 29873 ft | 532 kts | 200° |
| 2026-05-04 04:05 | 19.65327 | 73.06095 | 29863 ft | 532 kts | 200° |
| 2026-05-04 04:06 | 19.58330 | 73.03783 | 29861 ft | 532 kts | 200° |
| 2026-05-04 04:06 | 19.51261 | 73.01449 | 29854 ft | 532 kts | 200° |
| 2026-05-04 04:07 | 19.44183 | 72.99114 | 29851 ft | 532 kts | 200° |
| 2026-05-04 04:07 | 19.37093 | 72.96773 | 29850 ft | 533 kts | 200° |
| 2026-05-04 04:08 | 19.30012 | 72.94440 | 29848 ft | 533 kts | 200° |
| 2026-05-04 04:08 | 19.22927 | 72.92111 | 29851 ft | 533 kts | 200° |
| 2026-05-04 04:09 | 19.15907 | 72.89728 | 29837 ft | 531 kts | 207° |
| 2026-05-04 04:09 | 19.12724 | 72.87798 | 29845 ft | 526 kts | 221° |
| 2026-05-04 04:09 | 19.10132 | 72.85131 | 29845 ft | 521 kts | 234° |
| 2026-05-04 04:10 | 19.08211 | 72.81909 | 29848 ft | 515 kts | 246° |
| 2026-05-04 04:10 | 19.06885 | 72.78405 | 29850 ft | 511 kts | 254° |
| 2026-05-04 04:10 | 19.05286 | 72.71116 | 29846 ft | 508 kts | 262° |
| 2026-05-04 04:11 | 19.04096 | 72.63761 | 29845 ft | 508 kts | 262° |
| 2026-05-04 04:11 | 19.02806 | 72.56414 | 29846 ft | 508 kts | 261° |
| 2026-05-04 04:12 | 19.01466 | 72.49075 | 29845 ft | 509 kts | 261° |
| 2026-05-04 04:12 | 19.00118 | 72.41721 | 29846 ft | 509 kts | 261° |
| 2026-05-04 04:13 | 18.98751 | 72.34383 | 29847 ft | 509 kts | 261° |
| 2026-05-04 04:13 | 18.97377 | 72.27050 | 29849 ft | 509 kts | 261° |
| 2026-05-04 04:14 | 18.96002 | 72.19762 | 29850 ft | 509 kts | 261° |
| 2026-05-04 04:14 | 18.94621 | 72.12427 | 29848 ft | 509 kts | 261° |
| 2026-05-04 04:15 | 18.93226 | 72.05091 | 29851 ft | 510 kts | 261° |
| 2026-05-04 04:15 | 18.91831 | 71.97751 | 29850 ft | 510 kts | 261° |
| 2026-05-04 04:16 | 18.90427 | 71.90378 | 29852 ft | 512 kts | 261° |
| 2026-05-04 04:16 | 18.89020 | 71.83000 | 29851 ft | 512 kts | 261° |
| 2026-05-04 04:17 | 18.87615 | 71.75629 | 29850 ft | 512 kts | 261° |
| 2026-05-04 04:17 | 18.86206 | 71.68272 | 29852 ft | 512 kts | 261° |
| 2026-05-04 04:18 | 18.84787 | 71.60886 | 29852 ft | 512 kts | 261° |
| 2026-05-04 04:18 | 18.83371 | 71.53517 | 29852 ft | 512 kts | 261° |
| 2026-05-04 04:19 | 18.81960 | 71.46167 | 29842 ft | 511 kts | 261° |
| 2026-05-04 04:19 | 18.80540 | 71.38849 | 29844 ft | 513 kts | 261° |
| 2026-05-04 04:20 | 18.79109 | 71.31478 | 29843 ft | 513 kts | 261° |
| 2026-05-04 04:20 | 18.77679 | 71.24111 | 29843 ft | 513 kts | 261° |
| 2026-05-04 04:21 | 18.76243 | 71.16733 | 29842 ft | 513 kts | 261° |
| 2026-05-04 04:21 | 18.74808 | 71.09363 | 29839 ft | 513 kts | 261° |
| 2026-05-04 04:22 | 18.73367 | 71.01994 | 29842 ft | 513 kts | 261° |
| 2026-05-04 04:22 | 18.71924 | 70.94623 | 29841 ft | 513 kts | 261° |
| 2026-05-04 04:23 | 18.70474 | 70.87237 | 29843 ft | 514 kts | 261° |
| 2026-05-04 04:23 | 18.69030 | 70.79892 | 29828 ft | 514 kts | 261° |
| 2026-05-04 04:24 | 18.67578 | 70.72520 | 29825 ft | 514 kts | 261° |
| 2026-05-04 04:24 | 18.66123 | 70.65153 | 29826 ft | 514 kts | 261° |
| 2026-05-04 04:25 | 18.64659 | 70.57756 | 29824 ft | 514 kts | 261° |
| 2026-05-04 04:25 | 18.63194 | 70.50371 | 29824 ft | 514 kts | 261° |
| 2026-05-04 04:26 | 18.61727 | 70.42982 | 29824 ft | 515 kts | 261° |
| 2026-05-04 04:26 | 18.60255 | 70.35592 | 29823 ft | 515 kts | 261° |
| 2026-05-04 04:27 | 18.58780 | 70.28209 | 29824 ft | 515 kts | 261° |
| 2026-05-04 04:27 | 18.57300 | 70.20812 | 29823 ft | 516 kts | 261° |
| 2026-05-04 04:28 | 18.55818 | 70.13410 | 29824 ft | 515 kts | 261° |
| 2026-05-04 04:28 | 18.54343 | 70.06067 | 29825 ft | 515 kts | 261° |
| 2026-05-04 04:29 | 18.52854 | 69.98669 | 29822 ft | 516 kts | 261° |
| 2026-05-04 04:29 | 18.51361 | 69.91265 | 29824 ft | 517 kts | 261° |
| 2026-05-04 04:30 | 18.49861 | 69.83854 | 29823 ft | 517 kts | 261° |
| 2026-05-04 04:30 | 18.48360 | 69.76443 | 29825 ft | 517 kts | 261° |
| 2026-05-04 04:31 | 18.46856 | 69.69034 | 29823 ft | 517 kts | 261° |
| 2026-05-04 04:31 | 18.45364 | 69.61670 | 29828 ft | 517 kts | 261° |
| 2026-05-04 04:32 | 18.43862 | 69.54253 | 29828 ft | 517 kts | 261° |
| 2026-05-04 04:32 | 18.42346 | 69.46857 | 29830 ft | 517 kts | 261° |
| 2026-05-04 04:33 | 18.40826 | 69.39455 | 29828 ft | 517 kts | 261° |
| 2026-05-04 04:33 | 18.39304 | 69.32057 | 29829 ft | 517 kts | 261° |
| 2026-05-04 04:34 | 18.37770 | 69.24661 | 29894 ft | 517 kts | 261° |
| 2026-05-04 04:34 | 18.36997 | 69.20971 | 30151 ft | 516 kts | 261° |
| 2026-05-04 04:34 | 18.36223 | 69.17278 | 30422 ft | 516 kts | 261° |
| 2026-05-04 04:35 | 18.35712 | 69.14839 | 30579 ft | 515 kts | 261° |
| 2026-05-04 04:35 | 18.34688 | 69.09965 | 30945 ft | 514 kts | 261° |
| 2026-05-04 04:35 | 18.33919 | 69.06305 | 31303 ft | 510 kts | 261° |
| 2026-05-04 04:35 | 18.33152 | 69.02662 | 31556 ft | 510 kts | 261° |
| 2026-05-04 04:36 | 18.32383 | 68.99006 | 31665 ft | 512 kts | 261° |
| 2026-05-04 04:36 | 18.31612 | 68.95348 | 31797 ft | 512 kts | 261° |
| 2026-05-04 04:36 | 18.30351 | 68.89263 | 31831 ft | 511 kts | 261° |
| 2026-05-04 04:37 | 18.27287 | 68.74648 | 31826 ft | 512 kts | 261° |
| 2026-05-04 04:38 | 18.25744 | 68.67329 | 31827 ft | 512 kts | 261° |
| 2026-05-04 04:38 | 18.24197 | 68.60015 | 31829 ft | 512 kts | 261° |
| 2026-05-04 04:39 | 18.22644 | 68.52690 | 31828 ft | 512 kts | 261° |
| 2026-05-04 04:39 | 18.21089 | 68.45373 | 31827 ft | 513 kts | 261° |
| 2026-05-04 04:40 | 18.19530 | 68.38043 | 31825 ft | 513 kts | 261° |
| 2026-05-04 04:40 | 18.17966 | 68.30715 | 31826 ft | 514 kts | 261° |
| 2026-05-04 04:41 | 18.16402 | 68.23389 | 31826 ft | 514 kts | 260° |
| 2026-05-04 04:41 | 18.14832 | 68.16053 | 31827 ft | 514 kts | 260° |
| 2026-05-04 04:42 | 18.13274 | 68.08715 | 31825 ft | 514 kts | 260° |
| 2026-05-04 04:42 | 18.11693 | 68.01372 | 31812 ft | 515 kts | 260° |
| 2026-05-04 04:43 | 18.10106 | 67.94036 | 31810 ft | 515 kts | 260° |
| 2026-05-04 04:43 | 18.08519 | 67.86701 | 31810 ft | 515 kts | 260° |
| 2026-05-04 04:44 | 18.06927 | 67.79368 | 31809 ft | 515 kts | 260° |
| 2026-05-04 04:44 | 18.05312 | 67.72041 | 31810 ft | 515 kts | 260° |
| 2026-05-04 04:45 | 18.03704 | 67.64756 | 31810 ft | 515 kts | 260° |
| 2026-05-04 04:47 | 17.98052 | 67.39109 | 31809 ft | 517 kts | 260° |
| 2026-05-04 04:47 | 17.96427 | 67.31738 | 31808 ft | 517 kts | 260° |
| 2026-05-04 04:48 | 17.94799 | 67.24388 | 31809 ft | 517 kts | 260° |
| 2026-05-04 04:49 | 17.90713 | 67.06020 | 31810 ft | 518 kts | 260° |
| 2026-05-04 04:49 | 17.89071 | 66.98661 | 31814 ft | 518 kts | 260° |
| 2026-05-04 04:50 | 17.87422 | 66.91288 | 31813 ft | 518 kts | 260° |
| 2026-05-04 04:50 | 17.85773 | 66.83921 | 31811 ft | 518 kts | 260° |
| 2026-05-04 04:51 | 17.84116 | 66.76558 | 31814 ft | 518 kts | 260° |
| 2026-05-04 04:51 | 17.82459 | 66.69191 | 31814 ft | 518 kts | 260° |
| 2026-05-04 04:52 | 17.80799 | 66.61829 | 31813 ft | 518 kts | 259° |
| 2026-05-04 04:52 | 17.79150 | 66.54503 | 31809 ft | 518 kts | 259° |
| 2026-05-04 04:53 | 17.77483 | 66.47151 | 31815 ft | 518 kts | 259° |
| 2026-05-04 04:53 | 17.75815 | 66.39792 | 31814 ft | 518 kts | 260° |
| 2026-05-04 04:54 | 17.74144 | 66.32426 | 31811 ft | 518 kts | 259° |
| 2026-05-04 04:54 | 17.72472 | 66.25070 | 31811 ft | 518 kts | 259° |
| 2026-05-04 04:55 | 17.70797 | 66.17724 | 31810 ft | 517 kts | 259° |
| 2026-05-04 04:55 | 17.69123 | 66.10381 | 31813 ft | 517 kts | 260° |
| 2026-05-04 04:56 | 17.67458 | 66.03041 | 31813 ft | 517 kts | 259° |
| 2026-05-04 04:56 | 17.65773 | 65.95707 | 31814 ft | 518 kts | 259° |
| 2026-05-04 04:57 | 17.64089 | 65.88397 | 31813 ft | 518 kts | 259° |
| 2026-05-04 04:57 | 17.62399 | 65.81054 | 31809 ft | 518 kts | 259° |
| 2026-05-04 04:58 | 17.60698 | 65.73705 | 31827 ft | 518 kts | 259° |
| 2026-05-04 04:58 | 17.58988 | 65.66357 | 31829 ft | 519 kts | 259° |
| 2026-05-04 04:59 | 17.57276 | 65.59014 | 31830 ft | 519 kts | 259° |
| 2026-05-04 04:59 | 17.55556 | 65.51662 | 31830 ft | 520 kts | 259° |
| 2026-05-04 05:00 | 17.53846 | 65.44347 | 31829 ft | 520 kts | 259° |
| 2026-05-04 05:01 | 17.51281 | 65.33280 | 31831 ft | 521 kts | 259° |
| 2026-05-04 05:01 | 17.49558 | 65.25903 | 31832 ft | 521 kts | 259° |
| 2026-05-04 05:02 | 17.47830 | 65.18530 | 31832 ft | 521 kts | 259° |
| 2026-05-04 05:02 | 17.46099 | 65.11154 | 31835 ft | 521 kts | 259° |
| 2026-05-04 05:03 | 17.44361 | 65.03773 | 31835 ft | 522 kts | 259° |
| 2026-05-04 05:04 | 17.40887 | 64.89044 | 31835 ft | 522 kts | 259° |
| 2026-05-04 05:04 | 17.39126 | 64.81608 | 31836 ft | 523 kts | 259° |
| 2026-05-04 05:06 | 17.32132 | 64.52125 | 31837 ft | 523 kts | 258° |
| 2026-05-04 05:07 | 17.30362 | 64.44734 | 31836 ft | 523 kts | 258° |
| 2026-05-04 05:07 | 17.29795 | 64.40989 | 31835 ft | 520 kts | 271° |
| 2026-05-04 05:07 | 17.30128 | 64.37249 | 31837 ft | 516 kts | 285° |
| 2026-05-04 05:09 | 17.45361 | 64.12643 | 31837 ft | 505 kts | 308° |
| 2026-05-04 05:09 | 17.47449 | 64.09693 | 31837 ft | 504 kts | 308° |
| 2026-05-04 05:10 | 17.51631 | 64.03788 | 31837 ft | 504 kts | 308° |
| 2026-05-04 05:10 | 17.55793 | 63.97887 | 31836 ft | 503 kts | 308° |
| 2026-05-04 05:11 | 17.59923 | 63.92007 | 31836 ft | 504 kts | 308° |
| 2026-05-04 05:11 | 17.64083 | 63.86077 | 31837 ft | 504 kts | 308° |
| 2026-05-04 05:12 | 17.68239 | 63.80146 | 31836 ft | 504 kts | 307° |
| 2026-05-04 05:12 | 17.72392 | 63.74215 | 31838 ft | 504 kts | 308° |
| 2026-05-04 05:13 | 17.76538 | 63.68286 | 31836 ft | 504 kts | 307° |
| 2026-05-04 05:13 | 17.80693 | 63.62345 | 31832 ft | 504 kts | 307° |
| 2026-05-04 05:14 | 17.84832 | 63.56408 | 31835 ft | 504 kts | 307° |
| 2026-05-04 05:14 | 17.88976 | 63.50467 | 31837 ft | 505 kts | 307° |
| 2026-05-04 05:15 | 17.93123 | 63.44516 | 31836 ft | 504 kts | 307° |
| 2026-05-04 05:15 | 17.97266 | 63.38565 | 31835 ft | 505 kts | 307° |
| 2026-05-04 05:16 | 18.01412 | 63.32604 | 31837 ft | 502 kts | 307° |
| 2026-05-04 05:16 | 18.05508 | 63.26711 | 31836 ft | 501 kts | 307° |
| 2026-05-04 05:17 | 18.09617 | 63.20792 | 31836 ft | 501 kts | 307° |
| 2026-05-04 05:17 | 18.13735 | 63.14856 | 31835 ft | 502 kts | 307° |
| 2026-05-04 05:18 | 18.17845 | 63.08926 | 31835 ft | 501 kts | 307° |
| 2026-05-04 05:18 | 18.21952 | 63.02996 | 31835 ft | 501 kts | 307° |
| 2026-05-04 05:19 | 18.25369 | 62.98057 | 31835 ft | 501 kts | 307° |
| 2026-05-04 05:19 | 18.29473 | 62.92122 | 31835 ft | 501 kts | 307° |
| 2026-05-04 05:20 | 18.33565 | 62.86194 | 31835 ft | 502 kts | 307° |
| 2026-05-04 05:20 | 18.37676 | 62.80236 | 31836 ft | 502 kts | 307° |
| 2026-05-04 05:21 | 18.41783 | 62.74296 | 31835 ft | 502 kts | 307° |
| 2026-05-04 05:21 | 18.45888 | 62.68339 | 31835 ft | 502 kts | 307° |
| 2026-05-04 05:22 | 18.49986 | 62.62373 | 31835 ft | 502 kts | 307° |
| 2026-05-04 05:22 | 18.54052 | 62.56449 | 31836 ft | 502 kts | 307° |
| 2026-05-04 05:23 | 18.58145 | 62.50487 | 31834 ft | 502 kts | 307° |
| 2026-05-04 05:23 | 18.62210 | 62.44495 | 31819 ft | 503 kts | 306° |
| 2026-05-04 05:24 | 18.66268 | 62.38490 | 31817 ft | 502 kts | 306° |
| 2026-05-04 05:24 | 18.70315 | 62.32494 | 31818 ft | 502 kts | 306° |
| 2026-05-04 05:25 | 18.74362 | 62.26492 | 31817 ft | 502 kts | 306° |
| 2026-05-04 05:25 | 18.78408 | 62.20486 | 31816 ft | 502 kts | 307° |
| 2026-05-04 05:26 | 18.82466 | 62.14500 | 31817 ft | 501 kts | 307° |
| 2026-05-04 05:26 | 18.86507 | 62.08517 | 31817 ft | 501 kts | 306° |
| 2026-05-04 05:28 | 19.02622 | 61.84549 | 31816 ft | 501 kts | 306° |
| 2026-05-04 05:29 | 19.06644 | 61.78550 | 31816 ft | 500 kts | 306° |
| 2026-05-04 05:29 | 19.10662 | 61.72553 | 31816 ft | 500 kts | 306° |
| 2026-05-04 05:31 | 19.26675 | 61.48590 | 31816 ft | 499 kts | 306° |
| 2026-05-04 05:32 | 19.30671 | 61.42597 | 31817 ft | 498 kts | 306° |
| 2026-05-04 05:33 | 19.36655 | 61.33610 | 31815 ft | 498 kts | 306° |
| 2026-05-04 05:33 | 19.40649 | 61.27605 | 31814 ft | 498 kts | 306° |
| 2026-05-04 05:34 | 19.44637 | 61.21605 | 31814 ft | 498 kts | 306° |
| 2026-05-04 05:34 | 19.48619 | 61.15608 | 31809 ft | 498 kts | 306° |
| 2026-05-04 05:35 | 19.52601 | 61.09598 | 31812 ft | 498 kts | 306° |
| 2026-05-04 05:35 | 19.56584 | 61.03584 | 31792 ft | 498 kts | 306° |
| 2026-05-04 05:36 | 19.60563 | 60.97570 | 31789 ft | 498 kts | 306° |
| 2026-05-04 05:36 | 19.64542 | 60.91558 | 31786 ft | 498 kts | 306° |
| 2026-05-04 05:37 | 19.68518 | 60.85536 | 31790 ft | 498 kts | 306° |
| 2026-05-04 05:37 | 19.72462 | 60.79554 | 31794 ft | 498 kts | 306° |
| 2026-05-04 05:38 | 19.78413 | 60.70522 | 31790 ft | 497 kts | 306° |
| 2026-05-04 05:38 | 19.82375 | 60.64501 | 31791 ft | 497 kts | 306° |
| 2026-05-04 05:39 | 19.88333 | 60.55465 | 31794 ft | 497 kts | 306° |
| 2026-05-04 05:40 | 19.94270 | 60.46410 | 31791 ft | 497 kts | 305° |
| 2026-05-04 05:40 | 19.98222 | 60.40370 | 31792 ft | 497 kts | 305° |
| 2026-05-04 05:41 | 20.02169 | 60.34336 | 31793 ft | 496 kts | 305° |
| 2026-05-04 05:41 | 20.04303 | 60.31468 | 31788 ft | 494 kts | 316° |
| 2026-05-04 05:41 | 20.06922 | 60.29101 | 31795 ft | 495 kts | 322° |
| 2026-05-04 05:42 | 20.12662 | 60.25013 | 31787 ft | 497 kts | 328° |
| 2026-05-04 05:42 | 20.18587 | 60.21320 | 31791 ft | 496 kts | 329° |
| 2026-05-04 05:43 | 20.24547 | 60.17586 | 31789 ft | 497 kts | 328° |
| 2026-05-04 05:45 | 20.48262 | 60.02526 | 31794 ft | 496 kts | 328° |
| 2026-05-04 05:47 | 20.71904 | 59.87430 | 31789 ft | 495 kts | 328° |
| 2026-05-04 05:47 | 20.77820 | 59.83655 | 31788 ft | 495 kts | 328° |
| 2026-05-04 05:48 | 20.83725 | 59.79871 | 31790 ft | 495 kts | 328° |
| 2026-05-04 05:48 | 20.89627 | 59.76080 | 31785 ft | 494 kts | 328° |
| 2026-05-04 05:49 | 20.95488 | 59.72316 | 31786 ft | 494 kts | 327° |
| 2026-05-04 05:49 | 20.98191 | 59.70077 | 31789 ft | 492 kts | 313° |
| 2026-05-04 05:49 | 21.00251 | 59.67161 | 31795 ft | 491 kts | 301° |
| 2026-05-04 05:51 | 21.08080 | 59.42938 | 31786 ft | 493 kts | 288° |
| 2026-05-04 05:51 | 21.09094 | 59.39427 | 31786 ft | 493 kts | 288° |
| 2026-05-04 05:52 | 21.11133 | 59.32423 | 31787 ft | 493 kts | 289° |
| 2026-05-04 05:52 | 21.13193 | 59.25417 | 31786 ft | 493 kts | 288° |
| 2026-05-04 05:54 | 21.21343 | 58.97402 | 31787 ft | 493 kts | 288° |
| 2026-05-04 05:55 | 21.23363 | 58.90384 | 31788 ft | 493 kts | 288° |
| 2026-05-04 05:55 | 21.25387 | 58.83356 | 31787 ft | 493 kts | 288° |
| 2026-05-04 05:56 | 21.27404 | 58.76341 | 31786 ft | 492 kts | 288° |
| 2026-05-04 05:56 | 21.29416 | 58.69325 | 31788 ft | 493 kts | 288° |
| 2026-05-04 05:57 | 21.31425 | 58.62295 | 31789 ft | 493 kts | 288° |
| 2026-05-04 05:57 | 21.33420 | 58.55301 | 31784 ft | 493 kts | 288° |
| 2026-05-04 05:58 | 21.35424 | 58.48261 | 31786 ft | 493 kts | 288° |
| 2026-05-04 05:58 | 21.37440 | 58.41224 | 31787 ft | 492 kts | 288° |
| 2026-05-04 05:59 | 21.39455 | 58.34208 | 31786 ft | 492 kts | 288° |
| 2026-05-04 05:59 | 21.41458 | 58.27181 | 31787 ft | 492 kts | 288° |
| 2026-05-04 06:00 | 21.43453 | 58.20155 | 31785 ft | 492 kts | 288° |
| 2026-05-04 06:00 | 21.45446 | 58.13128 | 31784 ft | 492 kts | 288° |
| 2026-05-04 06:01 | 21.47431 | 58.06108 | 31785 ft | 491 kts | 288° |
| 2026-05-04 06:03 | 21.55283 | 57.78260 | 31782 ft | 492 kts | 287° |
| 2026-05-04 06:05 | 21.64136 | 57.46562 | 31787 ft | 492 kts | 287° |
| 2026-05-04 06:06 | 21.66107 | 57.39503 | 31788 ft | 492 kts | 287° |
| 2026-05-04 06:06 | 21.67732 | 57.33628 | 31786 ft | 493 kts | 287° |
| 2026-05-04 06:07 | 21.70000 | 57.25404 | 31786 ft | 493 kts | 287° |
| 2026-05-04 06:07 | 21.71624 | 57.19515 | 31786 ft | 493 kts | 287° |
| 2026-05-04 06:08 | 21.73572 | 57.12440 | 31785 ft | 493 kts | 287° |
| 2026-05-04 06:08 | 21.75514 | 57.05360 | 31785 ft | 493 kts | 287° |
| 2026-05-04 06:09 | 21.77476 | 56.98293 | 31788 ft | 494 kts | 287° |
| 2026-05-04 06:11 | 21.85202 | 56.69951 | 31785 ft | 494 kts | 286° |
| 2026-05-04 06:13 | 21.92910 | 56.41559 | 31840 ft | 494 kts | 287° |
| 2026-05-04 06:14 | 21.99608 | 56.16672 | 31833 ft | 494 kts | 286° |
| 2026-05-04 06:15 | 22.01511 | 56.09548 | 31833 ft | 494 kts | 286° |
| 2026-05-04 06:15 | 22.03415 | 56.02432 | 31828 ft | 494 kts | 286° |
| 2026-05-04 06:16 | 22.05319 | 55.95312 | 31834 ft | 494 kts | 286° |
| 2026-05-04 06:16 | 22.07217 | 55.88238 | 31834 ft | 494 kts | 287° |
| 2026-05-04 06:17 | 22.09136 | 55.81122 | 31834 ft | 494 kts | 286° |
| 2026-05-04 06:17 | 22.11032 | 55.73992 | 31835 ft | 494 kts | 286° |
| 2026-05-04 06:18 | 22.12919 | 55.66870 | 31835 ft | 493 kts | 286° |
| 2026-05-04 06:20 | 22.14201 | 55.37646 | 32775 ft | 491 kts | 265° |
| 2026-05-04 06:20 | 22.13872 | 55.33978 | 32958 ft | 491 kts | 265° |
| 2026-05-04 06:21 | 22.12612 | 55.19376 | 33728 ft | 486 kts | 266° |
| 2026-05-04 06:21 | 22.12321 | 55.15749 | 33835 ft | 486 kts | 266° |
| 2026-05-04 06:22 | 22.12027 | 55.12120 | 33850 ft | 486 kts | 266° |
| 2026-05-04 06:25 | 22.07711 | 54.61347 | 33845 ft | 487 kts | 265° |
| 2026-05-04 06:26 | 22.07076 | 54.54066 | 33832 ft | 487 kts | 265° |
| 2026-05-04 06:26 | 22.06443 | 54.46835 | 33832 ft | 488 kts | 265° |
| 2026-05-04 06:27 | 22.04833 | 54.28617 | 33838 ft | 488 kts | 265° |
| 2026-05-04 06:28 | 22.04183 | 54.21324 | 33838 ft | 489 kts | 265° |
| 2026-05-04 06:28 | 22.03528 | 54.14019 | 33838 ft | 489 kts | 265° |
| 2026-05-04 06:29 | 22.02871 | 54.06715 | 33835 ft | 489 kts | 265° |
| 2026-05-04 06:29 | 22.02210 | 53.99418 | 33840 ft | 489 kts | 265° |
| 2026-05-04 06:30 | 22.01550 | 53.92162 | 33838 ft | 489 kts | 265° |
| 2026-05-04 06:30 | 22.00884 | 53.84871 | 33840 ft | 489 kts | 265° |
| 2026-05-04 06:31 | 22.00214 | 53.77575 | 33843 ft | 489 kts | 264° |
| 2026-05-04 06:31 | 21.99540 | 53.70273 | 33841 ft | 489 kts | 264° |
| 2026-05-04 06:33 | 21.96809 | 53.41050 | 33848 ft | 490 kts | 264° |
| 2026-05-04 06:34 | 21.96124 | 53.33796 | 33838 ft | 490 kts | 264° |
| 2026-05-04 06:34 | 21.95429 | 53.26481 | 33848 ft | 491 kts | 264° |
| 2026-05-04 06:36 | 21.92634 | 52.97210 | 33859 ft | 491 kts | 264° |
| 2026-05-04 06:37 | 21.91917 | 52.89882 | 33859 ft | 492 kts | 264° |
| 2026-05-04 06:37 | 21.91194 | 52.82555 | 33858 ft | 492 kts | 264° |
| 2026-05-04 06:38 | 21.90469 | 52.75219 | 33860 ft | 492 kts | 264° |
| 2026-05-04 06:40 | 21.93755 | 52.49775 | 33863 ft | 493 kts | 280° |
| 2026-05-04 06:40 | 21.94429 | 52.46149 | 33862 ft | 493 kts | 280° |
| 2026-05-04 06:40 | 21.95758 | 52.38907 | 33863 ft | 493 kts | 280° |
| 2026-05-04 06:41 | 21.97088 | 52.31664 | 33868 ft | 493 kts | 280° |
| 2026-05-04 06:41 | 21.98431 | 52.24418 | 33864 ft | 493 kts | 280° |
| 2026-05-04 06:42 | 21.99758 | 52.17168 | 33854 ft | 493 kts | 280° |
| 2026-05-04 06:44 | 22.04995 | 51.88189 | 33873 ft | 492 kts | 279° |
| 2026-05-04 06:44 | 22.06293 | 51.80944 | 33869 ft | 492 kts | 279° |
| 2026-05-04 06:45 | 22.07582 | 51.73732 | 33867 ft | 493 kts | 279° |
| 2026-05-04 06:45 | 22.08877 | 51.66474 | 33868 ft | 493 kts | 279° |
| 2026-05-04 06:46 | 22.10166 | 51.59225 | 33870 ft | 492 kts | 279° |
| 2026-05-04 06:46 | 22.11450 | 51.51992 | 33889 ft | 490 kts | 279° |
| 2026-05-04 06:48 | 22.16555 | 51.23025 | 33890 ft | 490 kts | 279° |
| 2026-05-04 06:50 | 22.21596 | 50.94102 | 33886 ft | 491 kts | 279° |
| 2026-05-04 06:51 | 22.22851 | 50.86855 | 33886 ft | 491 kts | 279° |
| 2026-05-04 06:51 | 22.24103 | 50.79600 | 33886 ft | 491 kts | 279° |
| 2026-05-04 06:52 | 22.25141 | 50.73576 | 33887 ft | 491 kts | 279° |
| 2026-05-04 06:52 | 22.26390 | 50.66303 | 33886 ft | 492 kts | 279° |
| 2026-05-04 06:53 | 22.27635 | 50.59037 | 33893 ft | 491 kts | 279° |
| 2026-05-04 06:53 | 22.29077 | 50.50598 | 33888 ft | 492 kts | 279° |
| 2026-05-04 06:54 | 22.30316 | 50.43324 | 33887 ft | 493 kts | 279° |
| 2026-05-04 06:54 | 22.31350 | 50.37237 | 33889 ft | 491 kts | 278° |
| 2026-05-04 06:55 | 22.32576 | 50.29998 | 33888 ft | 494 kts | 278° |
| 2026-05-04 06:55 | 22.33810 | 50.22696 | 33888 ft | 494 kts | 278° |
| 2026-05-04 06:57 | 22.38709 | 49.93490 | 33926 ft | 494 kts | 278° |
| 2026-05-04 06:58 | 22.39926 | 49.86182 | 33940 ft | 494 kts | 278° |
| 2026-05-04 06:58 | 22.41141 | 49.78880 | 33938 ft | 494 kts | 278° |
| 2026-05-04 06:59 | 22.42342 | 49.71621 | 33944 ft | 493 kts | 278° |
| 2026-05-04 06:59 | 22.43547 | 49.64322 | 33943 ft | 493 kts | 278° |
| 2026-05-04 07:01 | 22.48329 | 49.35158 | 33951 ft | 491 kts | 278° |
| 2026-05-04 07:02 | 22.49515 | 49.27873 | 33946 ft | 492 kts | 278° |
| 2026-05-04 07:02 | 22.50698 | 49.20592 | 33950 ft | 492 kts | 278° |
| 2026-05-04 07:03 | 22.51869 | 49.13342 | 33954 ft | 492 kts | 278° |
| 2026-05-04 07:03 | 22.53045 | 49.06051 | 33954 ft | 492 kts | 278° |
| 2026-05-04 07:04 | 22.54217 | 48.98763 | 33952 ft | 491 kts | 278° |
| 2026-05-04 07:04 | 22.55386 | 48.91471 | 33958 ft | 492 kts | 278° |
| 2026-05-04 07:05 | 22.56550 | 48.84187 | 33958 ft | 491 kts | 278° |
| 2026-05-04 07:05 | 22.57709 | 48.76917 | 33956 ft | 493 kts | 278° |
| 2026-05-04 07:06 | 22.59447 | 48.65972 | 33965 ft | 492 kts | 278° |
| 2026-05-04 07:07 | 22.60604 | 48.58656 | 33967 ft | 492 kts | 278° |
| 2026-05-04 07:09 | 22.65210 | 48.29452 | 33971 ft | 493 kts | 278° |
| 2026-05-04 07:09 | 22.66346 | 48.22123 | 33971 ft | 493 kts | 278° |
| 2026-05-04 07:10 | 22.67476 | 48.14805 | 33973 ft | 492 kts | 278° |
| 2026-05-04 07:12 | 22.70708 | 47.85468 | 33977 ft | 490 kts | 274° |
| 2026-05-04 07:12 | 22.71304 | 47.78123 | 33971 ft | 489 kts | 274° |
| 2026-05-04 07:13 | 22.71900 | 47.70783 | 33977 ft | 489 kts | 274° |
| 2026-05-04 07:13 | 22.72514 | 47.63430 | 33977 ft | 490 kts | 274° |
| 2026-05-04 07:14 | 22.74046 | 47.45096 | 33999 ft | 487 kts | 274° |
| 2026-05-04 07:15 | 22.74633 | 47.37794 | 33988 ft | 487 kts | 274° |
| 2026-05-04 07:15 | 22.75211 | 47.30482 | 34000 ft | 487 kts | 274° |
| 2026-05-04 07:16 | 22.75787 | 47.23176 | 34001 ft | 486 kts | 274° |
| 2026-05-04 07:16 | 22.76363 | 47.15883 | 34002 ft | 486 kts | 274° |
| 2026-05-04 07:17 | 22.76936 | 47.08638 | 34001 ft | 485 kts | 273° |
| 2026-05-04 07:17 | 22.77505 | 47.01352 | 33998 ft | 485 kts | 273° |
| 2026-05-04 07:18 | 22.78071 | 46.94073 | 33999 ft | 485 kts | 273° |
| 2026-05-04 07:18 | 22.78629 | 46.86805 | 34000 ft | 484 kts | 273° |
| 2026-05-04 07:19 | 22.79193 | 46.79527 | 34002 ft | 484 kts | 274° |
| 2026-05-04 07:19 | 22.79784 | 46.72306 | 34002 ft | 484 kts | 274° |
| 2026-05-04 07:20 | 22.80359 | 46.65042 | 34004 ft | 484 kts | 273° |
| 2026-05-04 07:20 | 22.80908 | 46.57774 | 34012 ft | 483 kts | 273° |
| 2026-05-04 07:22 | 22.83064 | 46.28768 | 34009 ft | 482 kts | 273° |
| 2026-05-04 07:23 | 22.83586 | 46.21567 | 34018 ft | 482 kts | 273° |
| 2026-05-04 07:23 | 22.84110 | 46.14319 | 34009 ft | 482 kts | 273° |
| 2026-05-04 07:24 | 22.84622 | 46.07116 | 34017 ft | 482 kts | 273° |
| 2026-05-04 07:24 | 22.85151 | 45.99865 | 34010 ft | 482 kts | 273° |
| 2026-05-04 07:26 | 22.87235 | 45.70991 | 34020 ft | 480 kts | 273° |
| 2026-05-04 07:27 | 22.87743 | 45.63764 | 34015 ft | 480 kts | 273° |
| 2026-05-04 07:27 | 22.88245 | 45.56552 | 34013 ft | 479 kts | 272° |
| 2026-05-04 07:28 | 22.88743 | 45.49350 | 34025 ft | 479 kts | 272° |
| 2026-05-04 07:28 | 22.89244 | 45.42147 | 34027 ft | 479 kts | 273° |
| 2026-05-04 07:29 | 22.89742 | 45.34997 | 34032 ft | 479 kts | 273° |
| 2026-05-04 07:29 | 22.90226 | 45.27795 | 34027 ft | 478 kts | 272° |
| 2026-05-04 07:30 | 22.90703 | 45.20612 | 34034 ft | 477 kts | 272° |
| 2026-05-04 07:30 | 22.91179 | 45.13418 | 34043 ft | 478 kts | 272° |
| 2026-05-04 07:31 | 22.91657 | 45.06229 | 34036 ft | 478 kts | 272° |
| 2026-05-04 07:33 | 22.93531 | 44.77521 | 34043 ft | 477 kts | 272° |
| 2026-05-04 07:33 | 22.93987 | 44.70332 | 34043 ft | 477 kts | 272° |
| 2026-05-04 07:34 | 22.95271 | 44.63272 | 34054 ft | 479 kts | 284° |
| 2026-05-04 07:34 | 22.97365 | 44.56392 | 34043 ft | 481 kts | 287° |
| 2026-05-04 07:35 | 22.99552 | 44.49536 | 34051 ft | 481 kts | 286° |
| 2026-05-04 07:35 | 23.01687 | 44.42655 | 34049 ft | 481 kts | 286° |
| 2026-05-04 07:36 | 23.03812 | 44.35748 | 34046 ft | 481 kts | 285° |